sensor_id;sensor_type;location;lat;lon;timestamp;temperature;humidity
25953;DHT22;13750;50.804;8.764;2022-07-23T00:01:19;19.60;76.00
25953;DHT22;13750;50.804;8.764;2022-07-23T00:03:44;19.50;76.10
25953;DHT22;13750;50.804;8.764;2022-07-23T00:06:10;19.60;76.00
25953;DHT22;13750;50.804;8.764;2022-07-23T00:08:36;19.60;76.00
25953;DHT22;13750;50.804;8.764;2022-07-23T00:11:02;19.50;76.00
25953;DHT22;13750;50.804;8.764;2022-07-23T00:13:27;19.60;76.10
25953;DHT22;13750;50.804;8.764;2022-07-23T00:15:56;19.50;76.10
25953;DHT22;13750;50.804;8.764;2022-07-23T00:18:22;19.50;76.00
25953;DHT22;13750;50.804;8.764;2022-07-23T00:20:48;19.60;76.00
25953;DHT22;13750;50.804;8.764;2022-07-23T00:23:14;19.60;76.00
25953;DHT22;13750;50.804;8.764;2022-07-23T00:25:39;19.50;76.00
25953;DHT22;13750;50.804;8.764;2022-07-23T00:28:05;19.50;76.00
25953;DHT22;13750;50.804;8.764;2022-07-23T00:30:32;19.40;76.00
25953;DHT22;13750;50.804;8.764;2022-07-23T00:33:00;19.40;76.20
25953;DHT22;13750;50.804;8.764;2022-07-23T00:35:28;19.30;76.70
25953;DHT22;13750;50.804;8.764;2022-07-23T00:37:55;19.30;76.30
25953;DHT22;13750;50.804;8.764;2022-07-23T00:40:21;19.30;76.30
25953;DHT22;13750;50.804;8.764;2022-07-23T00:42:47;19.20;76.60
25953;DHT22;13750;50.804;8.764;2022-07-23T00:45:12;19.20;76.60
25953;DHT22;13750;50.804;8.764;2022-07-23T00:47:38;19.20;76.90
25953;DHT22;13750;50.804;8.764;2022-07-23T00:50:06;19.20;77.10
25953;DHT22;13750;50.804;8.764;2022-07-23T00:52:32;19.20;76.90
25953;DHT22;13750;50.804;8.764;2022-07-23T00:54:59;19.20;76.90
25953;DHT22;13750;50.804;8.764;2022-07-23T00:57:25;19.20;76.90
25953;DHT22;13750;50.804;8.764;2022-07-23T00:59:51;19.20;77.00
25953;DHT22;13750;50.804;8.764;2022-07-23T01:02:17;19.20;77.10
25953;DHT22;13750;50.804;8.764;2022-07-23T01:04:42;19.20;77.00
25953;DHT22;13750;50.804;8.764;2022-07-23T01:07:08;19.20;77.00
25953;DHT22;13750;50.804;8.764;2022-07-23T01:09:34;19.10;77.10
25953;DHT22;13750;50.804;8.764;2022-07-23T01:12:00;19.10;77.20
25953;DHT22;13750;50.804;8.764;2022-07-23T01:14:26;19.10;77.20
25953;DHT22;13750;50.804;8.764;2022-07-23T01:16:52;19.10;77.20
25953;DHT22;13750;50.804;8.764;2022-07-23T01:19:18;19.10;77.20
25953;DHT22;13750;50.804;8.764;2022-07-23T01:21:49;19.10;77.30
25953;DHT22;13750;50.804;8.764;2022-07-23T01:24:15;19.10;77.40
25953;DHT22;13750;50.804;8.764;2022-07-23T01:26:43;19.00;77.20
25953;DHT22;13750;50.804;8.764;2022-07-23T01:29:10;18.90;77.40
25953;DHT22;13750;50.804;8.764;2022-07-23T01:31:36;18.90;77.50
25953;DHT22;13750;50.804;8.764;2022-07-23T01:34:02;18.90;77.50
25953;DHT22;13750;50.804;8.764;2022-07-23T01:36:28;18.80;77.50
25953;DHT22;13750;50.804;8.764;2022-07-23T01:38:53;18.90;77.60
25953;DHT22;13750;50.804;8.764;2022-07-23T01:41:21;18.90;77.60
25953;DHT22;13750;50.804;8.764;2022-07-23T01:43:47;18.90;77.60
25953;DHT22;13750;50.804;8.764;2022-07-23T01:46:13;18.90;77.50
25953;DHT22;13750;50.804;8.764;2022-07-23T01:48:38;18.80;77.50
25953;DHT22;13750;50.804;8.764;2022-07-23T01:51:04;18.80;77.60
25953;DHT22;13750;50.804;8.764;2022-07-23T01:53:30;18.80;77.70
25953;DHT22;13750;50.804;8.764;2022-07-23T01:55:57;18.80;77.70
25953;DHT22;13750;50.804;8.764;2022-07-23T01:58:24;18.80;77.90
25953;DHT22;13750;50.804;8.764;2022-07-23T02:00:49;18.80;77.80
25953;DHT22;13750;50.804;8.764;2022-07-23T02:03:15;18.80;77.70
25953;DHT22;13750;50.804;8.764;2022-07-23T02:05:40;18.80;77.70
25953;DHT22;13750;50.804;8.764;2022-07-23T02:08:06;18.80;77.10
25953;DHT22;13750;50.804;8.764;2022-07-23T02:10:32;18.80;77.20
25953;DHT22;13750;50.804;8.764;2022-07-23T02:12:57;18.80;77.40
25953;DHT22;13750;50.804;8.764;2022-07-23T02:15:23;18.80;77.40
25953;DHT22;13750;50.804;8.764;2022-07-23T02:17:49;18.90;77.40
25953;DHT22;13750;50.804;8.764;2022-07-23T02:20:14;18.90;77.50
25953;DHT22;13750;50.804;8.764;2022-07-23T02:22:40;18.90;77.50
25953;DHT22;13750;50.804;8.764;2022-07-23T02:25:07;18.90;77.50
25953;DHT22;13750;50.804;8.764;2022-07-23T02:27:33;18.90;77.50
25953;DHT22;13750;50.804;8.764;2022-07-23T02:29:59;18.90;77.50
25953;DHT22;13750;50.804;8.764;2022-07-23T02:32:25;18.90;77.50
25953;DHT22;13750;50.804;8.764;2022-07-23T02:34:51;18.90;77.50
25953;DHT22;13750;50.804;8.764;2022-07-23T02:37:17;19.00;77.50
25953;DHT22;13750;50.804;8.764;2022-07-23T02:39:43;19.00;77.30
25953;DHT22;13750;50.804;8.764;2022-07-23T02:42:09;19.10;77.30
25953;DHT22;13750;50.804;8.764;2022-07-23T02:44:35;19.00;77.10
25953;DHT22;13750;50.804;8.764;2022-07-23T02:47:01;19.00;76.90
25953;DHT22;13750;50.804;8.764;2022-07-23T02:49:26;19.00;76.90
25953;DHT22;13750;50.804;8.764;2022-07-23T02:51:52;19.00;76.80
25953;DHT22;13750;50.804;8.764;2022-07-23T02:54:18;19.00;76.80
25953;DHT22;13750;50.804;8.764;2022-07-23T02:56:44;19.00;76.90
25953;DHT22;13750;50.804;8.764;2022-07-23T02:59:09;19.00;76.90
25953;DHT22;13750;50.804;8.764;2022-07-23T03:01:36;19.00;76.80
25953;DHT22;13750;50.804;8.764;2022-07-23T03:04:02;19.00;76.80
25953;DHT22;13750;50.804;8.764;2022-07-23T03:06:27;19.00;76.40
25953;DHT22;13750;50.804;8.764;2022-07-23T03:08:53;19.00;76.50
25953;DHT22;13750;50.804;8.764;2022-07-23T03:11:19;19.00;76.50
25953;DHT22;13750;50.804;8.764;2022-07-23T03:13:45;19.00;76.60
25953;DHT22;13750;50.804;8.764;2022-07-23T03:16:10;19.00;76.50
25953;DHT22;13750;50.804;8.764;2022-07-23T03:18:37;18.90;76.60
25953;DHT22;13750;50.804;8.764;2022-07-23T03:21:02;19.00;76.60
25953;DHT22;13750;50.804;8.764;2022-07-23T03:23:28;19.00;76.70
25953;DHT22;13750;50.804;8.764;2022-07-23T03:25:53;19.00;76.20
25953;DHT22;13750;50.804;8.764;2022-07-23T03:28:19;18.90;76.30
25953;DHT22;13750;50.804;8.764;2022-07-23T03:30:45;18.90;76.40
25953;DHT22;13750;50.804;8.764;2022-07-23T03:33:19;18.90;76.40
25953;DHT22;13750;50.804;8.764;2022-07-23T03:35:46;18.90;76.40
25953;DHT22;13750;50.804;8.764;2022-07-23T03:38:11;18.90;76.50
25953;DHT22;13750;50.804;8.764;2022-07-23T03:40:38;18.90;76.50
25953;DHT22;13750;50.804;8.764;2022-07-23T03:43:03;18.90;76.60
25953;DHT22;13750;50.804;8.764;2022-07-23T03:45:30;18.90;76.60
25953;DHT22;13750;50.804;8.764;2022-07-23T03:47:56;18.90;76.60
25953;DHT22;13750;50.804;8.764;2022-07-23T03:50:21;18.90;76.60
25953;DHT22;13750;50.804;8.764;2022-07-23T03:52:47;19.00;76.60
25953;DHT22;13750;50.804;8.764;2022-07-23T03:55:13;18.90;76.60
25953;DHT22;13750;50.804;8.764;2022-07-23T03:57:39;18.90;76.20
25953;DHT22;13750;50.804;8.764;2022-07-23T04:00:06;18.90;76.20
25953;DHT22;13750;50.804;8.764;2022-07-23T04:02:33;18.80;76.20
25953;DHT22;13750;50.804;8.764;2022-07-23T04:04:59;18.70;76.30
25953;DHT22;13750;50.804;8.764;2022-07-23T04:07:26;18.80;76.30
25953;DHT22;13750;50.804;8.764;2022-07-23T04:09:52;18.70;76.50
25953;DHT22;13750;50.804;8.764;2022-07-23T04:12:18;18.80;76.70
25953;DHT22;13750;50.804;8.764;2022-07-23T04:14:44;18.70;76.90
25953;DHT22;13750;50.804;8.764;2022-07-23T04:17:10;18.70;76.90
25953;DHT22;13750;50.804;8.764;2022-07-23T04:19:36;18.70;76.80
25953;DHT22;13750;50.804;8.764;2022-07-23T04:22:06;18.70;76.60
25953;DHT22;13750;50.804;8.764;2022-07-23T04:24:32;18.70;76.40
25953;DHT22;13750;50.804;8.764;2022-07-23T04:26:58;18.80;75.60
25953;DHT22;13750;50.804;8.764;2022-07-23T04:29:24;18.70;75.40
25953;DHT22;13750;50.804;8.764;2022-07-23T04:31:49;18.70;75.50
25953;DHT22;13750;50.804;8.764;2022-07-23T04:34:15;18.60;75.70
25953;DHT22;13750;50.804;8.764;2022-07-23T04:36:41;18.70;75.80
25953;DHT22;13750;50.804;8.764;2022-07-23T04:39:06;18.60;75.60
25953;DHT22;13750;50.804;8.764;2022-07-23T04:41:32;18.60;75.50
25953;DHT22;13750;50.804;8.764;2022-07-23T04:44:00;18.60;75.30
25953;DHT22;13750;50.804;8.764;2022-07-23T04:46:25;18.60;75.30
25953;DHT22;13750;50.804;8.764;2022-07-23T04:48:51;18.60;75.00
25953;DHT22;13750;50.804;8.764;2022-07-23T04:51:17;18.60;74.90
25953;DHT22;13750;50.804;8.764;2022-07-23T04:53:43;18.60;74.10
25953;DHT22;13750;50.804;8.764;2022-07-23T04:56:08;18.60;74.30
25953;DHT22;13750;50.804;8.764;2022-07-23T04:58:34;18.50;74.40
25953;DHT22;13750;50.804;8.764;2022-07-23T05:01:00;18.50;74.40
25953;DHT22;13750;50.804;8.764;2022-07-23T05:03:26;18.40;74.40
25953;DHT22;13750;50.804;8.764;2022-07-23T05:05:51;18.40;74.50
25953;DHT22;13750;50.804;8.764;2022-07-23T05:08:17;18.40;74.60
25953;DHT22;13750;50.804;8.764;2022-07-23T05:10:43;18.50;74.60
25953;DHT22;13750;50.804;8.764;2022-07-23T05:13:08;18.40;74.70
25953;DHT22;13750;50.804;8.764;2022-07-23T05:15:34;18.40;74.70
25953;DHT22;13750;50.804;8.764;2022-07-23T05:18:00;18.40;74.70
25953;DHT22;13750;50.804;8.764;2022-07-23T05:20:25;18.50;74.80
25953;DHT22;13750;50.804;8.764;2022-07-23T05:22:51;18.50;74.80
25953;DHT22;13750;50.804;8.764;2022-07-23T05:25:17;18.50;75.00
25953;DHT22;13750;50.804;8.764;2022-07-23T05:27:42;18.60;75.20
25953;DHT22;13750;50.804;8.764;2022-07-23T05:30:09;18.60;75.40
25953;DHT22;13750;50.804;8.764;2022-07-23T05:32:35;18.60;75.40
25953;DHT22;13750;50.804;8.764;2022-07-23T05:35:03;18.60;75.50
25953;DHT22;13750;50.804;8.764;2022-07-23T05:37:28;18.60;75.30
25953;DHT22;13750;50.804;8.764;2022-07-23T05:39:54;18.60;75.20
25953;DHT22;13750;50.804;8.764;2022-07-23T05:42:20;18.60;75.10
25953;DHT22;13750;50.804;8.764;2022-07-23T05:44:45;18.60;75.20
25953;DHT22;13750;50.804;8.764;2022-07-23T05:47:11;18.60;74.80
25953;DHT22;13750;50.804;8.764;2022-07-23T05:49:37;18.60;74.80
25953;DHT22;13750;50.804;8.764;2022-07-23T05:52:07;18.60;74.20
25953;DHT22;13750;50.804;8.764;2022-07-23T05:54:36;18.60;74.60
25953;DHT22;13750;50.804;8.764;2022-07-23T05:57:02;18.60;74.50
25953;DHT22;13750;50.804;8.764;2022-07-23T05:59:28;18.60;74.60
25953;DHT22;13750;50.804;8.764;2022-07-23T06:01:53;18.60;74.60
25953;DHT22;13750;50.804;8.764;2022-07-23T06:04:19;18.60;74.60
25953;DHT22;13750;50.804;8.764;2022-07-23T06:06:45;18.60;74.50
25953;DHT22;13750;50.804;8.764;2022-07-23T06:09:10;18.60;74.50
25953;DHT22;13750;50.804;8.764;2022-07-23T06:11:39;18.60;74.40
25953;DHT22;13750;50.804;8.764;2022-07-23T06:14:05;18.60;74.50
25953;DHT22;13750;50.804;8.764;2022-07-23T06:16:30;18.60;74.50
25953;DHT22;13750;50.804;8.764;2022-07-23T06:18:56;18.70;74.70
25953;DHT22;13750;50.804;8.764;2022-07-23T06:21:22;18.70;74.50
25953;DHT22;13750;50.804;8.764;2022-07-23T06:23:47;18.80;74.30
25953;DHT22;13750;50.804;8.764;2022-07-23T06:26:13;18.80;74.00
25953;DHT22;13750;50.804;8.764;2022-07-23T06:28:39;18.80;74.00
25953;DHT22;13750;50.804;8.764;2022-07-23T06:31:04;18.90;74.20
25953;DHT22;13750;50.804;8.764;2022-07-23T06:33:30;18.90;74.20
25953;DHT22;13750;50.804;8.764;2022-07-23T06:35:55;18.90;73.80
25953;DHT22;13750;50.804;8.764;2022-07-23T06:38:21;18.90;73.80
25953;DHT22;13750;50.804;8.764;2022-07-23T06:40:46;19.00;74.00
25953;DHT22;13750;50.804;8.764;2022-07-23T06:43:12;19.00;73.80
25953;DHT22;13750;50.804;8.764;2022-07-23T06:45:38;19.10;73.10
25953;DHT22;13750;50.804;8.764;2022-07-23T06:48:03;19.00;73.30
25953;DHT22;13750;50.804;8.764;2022-07-23T06:50:29;19.10;73.40
25953;DHT22;13750;50.804;8.764;2022-07-23T06:52:55;19.10;73.50
25953;DHT22;13750;50.804;8.764;2022-07-23T06:55:21;19.10;73.50
25953;DHT22;13750;50.804;8.764;2022-07-23T06:57:47;19.10;73.50
25953;DHT22;13750;50.804;8.764;2022-07-23T07:00:13;19.20;73.50
25953;DHT22;13750;50.804;8.764;2022-07-23T07:02:38;19.20;73.60
25953;DHT22;13750;50.804;8.764;2022-07-23T07:05:04;19.30;73.50
25953;DHT22;13750;50.804;8.764;2022-07-23T07:07:30;19.30;72.40
25953;DHT22;13750;50.804;8.764;2022-07-23T07:09:56;19.30;72.20
25953;DHT22;13750;50.804;8.764;2022-07-23T07:12:21;19.30;72.20
25953;DHT22;13750;50.804;8.764;2022-07-23T07:14:47;19.30;72.30
25953;DHT22;13750;50.804;8.764;2022-07-23T07:17:12;19.30;72.30
25953;DHT22;13750;50.804;8.764;2022-07-23T07:19:38;19.30;72.20
25953;DHT22;13750;50.804;8.764;2022-07-23T07:22:03;19.30;72.30
25953;DHT22;13750;50.804;8.764;2022-07-23T07:24:29;19.40;72.30
25953;DHT22;13750;50.804;8.764;2022-07-23T07:26:55;19.40;72.30
25953;DHT22;13750;50.804;8.764;2022-07-23T07:29:20;19.40;72.50
25953;DHT22;13750;50.804;8.764;2022-07-23T07:31:46;19.40;72.50
25953;DHT22;13750;50.804;8.764;2022-07-23T07:34:11;19.50;72.60
25953;DHT22;13750;50.804;8.764;2022-07-23T07:36:37;19.50;72.50
25953;DHT22;13750;50.804;8.764;2022-07-23T07:39:04;19.50;72.60
25953;DHT22;13750;50.804;8.764;2022-07-23T07:41:31;19.50;72.60
25953;DHT22;13750;50.804;8.764;2022-07-23T07:43:56;19.60;72.60
25953;DHT22;13750;50.804;8.764;2022-07-23T07:46:22;19.60;72.60
25953;DHT22;13750;50.804;8.764;2022-07-23T07:48:50;19.60;72.50
25953;DHT22;13750;50.804;8.764;2022-07-23T07:51:15;19.60;72.40
25953;DHT22;13750;50.804;8.764;2022-07-23T07:53:41;19.60;72.30
25953;DHT22;13750;50.804;8.764;2022-07-23T07:56:07;19.60;72.20
25953;DHT22;13750;50.804;8.764;2022-07-23T07:58:32;19.70;72.20
25953;DHT22;13750;50.804;8.764;2022-07-23T08:00:58;19.70;72.30
25953;DHT22;13750;50.804;8.764;2022-07-23T08:03:24;19.70;72.20
25953;DHT22;13750;50.804;8.764;2022-07-23T08:05:49;19.70;72.10
25953;DHT22;13750;50.804;8.764;2022-07-23T08:08:15;19.80;71.40
25953;DHT22;13750;50.804;8.764;2022-07-23T08:10:41;19.80;71.40
25953;DHT22;13750;50.804;8.764;2022-07-23T08:13:15;19.90;71.40
25953;DHT22;13750;50.804;8.764;2022-07-23T08:15:41;19.90;71.10
25953;DHT22;13750;50.804;8.764;2022-07-23T08:18:06;19.90;70.90
25953;DHT22;13750;50.804;8.764;2022-07-23T08:20:32;19.90;70.80
25953;DHT22;13750;50.804;8.764;2022-07-23T08:23:08;19.90;70.10
25953;DHT22;13750;50.804;8.764;2022-07-23T08:25:39;20.00;70.10
25953;DHT22;13750;50.804;8.764;2022-07-23T08:28:11;20.00;70.30
25953;DHT22;13750;50.804;8.764;2022-07-23T08:30:37;20.00;70.30
25953;DHT22;13750;50.804;8.764;2022-07-23T08:35:34;20.00;70.20
25953;DHT22;13750;50.804;8.764;2022-07-23T08:38:03;20.10;70.30
25953;DHT22;13750;50.804;8.764;2022-07-23T08:40:39;20.10;70.30
25953;DHT22;13750;50.804;8.764;2022-07-23T08:43:06;20.20;70.40
25953;DHT22;13750;50.804;8.764;2022-07-23T08:45:36;20.20;70.20
25953;DHT22;13750;50.804;8.764;2022-07-23T08:48:03;20.20;70.20
25953;DHT22;13750;50.804;8.764;2022-07-23T08:50:30;20.30;70.30
25953;DHT22;13750;50.804;8.764;2022-07-23T08:52:59;20.30;70.30
25953;DHT22;13750;50.804;8.764;2022-07-23T08:55:25;20.40;70.20
25953;DHT22;13750;50.804;8.764;2022-07-23T08:57:52;20.40;70.20
25953;DHT22;13750;50.804;8.764;2022-07-23T09:00:19;20.50;70.20
25953;DHT22;13750;50.804;8.764;2022-07-23T09:02:46;20.50;70.30
25953;DHT22;13750;50.804;8.764;2022-07-23T09:05:13;20.60;69.50
25953;DHT22;13750;50.804;8.764;2022-07-23T09:08:09;20.60;69.10
25953;DHT22;13750;50.804;8.764;2022-07-23T09:10:59;20.70;69.40
25953;DHT22;13750;50.804;8.764;2022-07-23T09:13:26;20.80;68.60
25953;DHT22;13750;50.804;8.764;2022-07-23T09:15:53;20.80;68.10
25953;DHT22;13750;50.804;8.764;2022-07-23T09:18:27;20.80;68.20
25953;DHT22;13750;50.804;8.764;2022-07-23T09:21:06;20.80;68.20
25953;DHT22;13750;50.804;8.764;2022-07-23T09:23:50;20.80;68.10
25953;DHT22;13750;50.804;8.764;2022-07-23T09:31:25;21.00;68.60
25953;DHT22;13750;50.804;8.764;2022-07-23T09:33:51;21.00;68.70
25953;DHT22;13750;50.804;8.764;2022-07-23T09:36:28;21.10;68.80
25953;DHT22;13750;50.804;8.764;2022-07-23T09:38:54;21.10;68.80
25953;DHT22;13750;50.804;8.764;2022-07-23T09:41:20;21.10;68.80
25953;DHT22;13750;50.804;8.764;2022-07-23T09:43:46;21.20;68.80
25953;DHT22;13750;50.804;8.764;2022-07-23T09:46:23;21.20;68.70
25953;DHT22;13750;50.804;8.764;2022-07-23T09:48:51;21.20;68.60
25953;DHT22;13750;50.804;8.764;2022-07-23T09:51:17;21.30;68.70
25953;DHT22;13750;50.804;8.764;2022-07-23T09:53:58;21.30;68.60
25953;DHT22;13750;50.804;8.764;2022-07-23T09:56:24;21.40;68.50
25953;DHT22;13750;50.804;8.764;2022-07-23T09:58:52;21.30;68.40
25953;DHT22;13750;50.804;8.764;2022-07-23T10:01:28;21.40;68.40
25953;DHT22;13750;50.804;8.764;2022-07-23T10:03:54;21.50;68.40
25953;DHT22;13750;50.804;8.764;2022-07-23T10:06:21;21.50;68.30
25953;DHT22;13750;50.804;8.764;2022-07-23T10:08:48;21.50;68.00
25953;DHT22;13750;50.804;8.764;2022-07-23T10:11:16;21.50;68.00
25953;DHT22;13750;50.804;8.764;2022-07-23T10:13:42;21.60;68.00
25953;DHT22;13750;50.804;8.764;2022-07-23T10:16:21;21.60;68.00
25953;DHT22;13750;50.804;8.764;2022-07-23T10:18:48;21.60;67.90
25953;DHT22;13750;50.804;8.764;2022-07-23T10:21:20;21.60;67.80
25953;DHT22;13750;50.804;8.764;2022-07-23T10:23:58;21.70;67.70
25953;DHT22;13750;50.804;8.764;2022-07-23T10:29:40;21.70;67.50
25953;DHT22;13750;50.804;8.764;2022-07-23T10:37:34;21.80;66.80
25953;DHT22;13750;50.804;8.764;2022-07-23T10:40:09;21.90;66.60
25953;DHT22;13750;50.804;8.764;2022-07-23T10:42:36;21.90;65.80
25953;DHT22;13750;50.804;8.764;2022-07-23T10:45:39;21.90;65.80
25953;DHT22;13750;50.804;8.764;2022-07-23T10:48:25;22.00;65.80
25953;DHT22;13750;50.804;8.764;2022-07-23T10:51:11;22.00;65.80
25953;DHT22;13750;50.804;8.764;2022-07-23T10:59:20;22.10;65.80
25953;DHT22;13750;50.804;8.764;2022-07-23T11:01:45;22.10;65.70
25953;DHT22;13750;50.804;8.764;2022-07-23T11:04:11;22.10;65.70
25953;DHT22;13750;50.804;8.764;2022-07-23T11:09:42;22.20;65.30
25953;DHT22;13750;50.804;8.764;2022-07-23T11:15:07;22.20;65.20
25953;DHT22;13750;50.804;8.764;2022-07-23T11:20:23;22.20;64.40
25953;DHT22;13750;50.804;8.764;2022-07-23T11:22:57;22.20;64.20
25953;DHT22;13750;50.804;8.764;2022-07-23T11:28:12;22.30;63.70
25953;DHT22;13750;50.804;8.764;2022-07-23T11:30:41;22.30;61.60
25953;DHT22;13750;50.804;8.764;2022-07-23T11:35:34;22.40;60.10
25953;DHT22;13750;50.804;8.764;2022-07-23T11:40:36;22.40;60.60
25953;DHT22;13750;50.804;8.764;2022-07-23T11:43:07;22.40;60.90
25953;DHT22;13750;50.804;8.764;2022-07-23T11:45:37;22.40;60.80
25953;DHT22;13750;50.804;8.764;2022-07-23T11:48:05;22.50;60.70
25953;DHT22;13750;50.804;8.764;2022-07-23T11:50:32;22.50;59.40
25953;DHT22;13750;50.804;8.764;2022-07-23T11:52:58;22.60;59.20
25953;DHT22;13750;50.804;8.764;2022-07-23T11:55:24;22.60;59.40
25953;DHT22;13750;50.804;8.764;2022-07-23T11:57:51;22.70;59.10
25953;DHT22;13750;50.804;8.764;2022-07-23T12:00:21;22.80;59.10
25953;DHT22;13750;50.804;8.764;2022-07-23T12:02:50;22.90;59.20
25953;DHT22;13750;50.804;8.764;2022-07-23T12:05:21;22.90;59.30
25953;DHT22;13750;50.804;8.764;2022-07-23T12:07:48;22.90;58.50
25953;DHT22;13750;50.804;8.764;2022-07-23T12:10:40;23.00;58.50
25953;DHT22;13750;50.804;8.764;2022-07-23T12:13:19;23.00;58.70
25953;DHT22;13750;50.804;8.764;2022-07-23T12:15:51;23.00;59.10
25953;DHT22;13750;50.804;8.764;2022-07-23T12:18:20;23.00;59.20
25953;DHT22;13750;50.804;8.764;2022-07-23T12:20:49;23.00;59.30
25953;DHT22;13750;50.804;8.764;2022-07-23T12:23:18;23.00;59.30
25953;DHT22;13750;50.804;8.764;2022-07-23T12:25:46;23.00;59.30
25953;DHT22;13750;50.804;8.764;2022-07-23T12:28:20;23.00;59.30
25953;DHT22;13750;50.804;8.764;2022-07-23T12:35:56;23.00;59.20
25953;DHT22;13750;50.804;8.764;2022-07-23T12:38:24;23.00;59.20
25953;DHT22;13750;50.804;8.764;2022-07-23T12:43:22;23.10;59.20
25953;DHT22;13750;50.804;8.764;2022-07-23T12:51:08;23.10;59.80
25953;DHT22;13750;50.804;8.764;2022-07-23T12:53:42;23.10;59.80
25953;DHT22;13750;50.804;8.764;2022-07-23T12:56:14;23.10;59.80
25953;DHT22;13750;50.804;8.764;2022-07-23T13:01:10;23.20;59.60
25953;DHT22;13750;50.804;8.764;2022-07-23T13:03:41;23.20;59.20
25953;DHT22;13750;50.804;8.764;2022-07-23T13:06:11;23.20;59.00
25953;DHT22;13750;50.804;8.764;2022-07-23T13:08:38;23.20;58.70
25953;DHT22;13750;50.804;8.764;2022-07-23T13:11:06;23.20;58.40
25953;DHT22;13750;50.804;8.764;2022-07-23T13:13:34;23.20;58.20
25953;DHT22;13750;50.804;8.764;2022-07-23T13:16:00;23.20;56.90
25953;DHT22;13750;50.804;8.764;2022-07-23T13:18:27;23.30;54.70
25953;DHT22;13750;50.804;8.764;2022-07-23T13:20:54;23.30;55.00
25953;DHT22;13750;50.804;8.764;2022-07-23T13:23:20;23.30;54.50
25953;DHT22;13750;50.804;8.764;2022-07-23T13:25:46;23.30;54.50
25953;DHT22;13750;50.804;8.764;2022-07-23T13:28:13;23.40;54.40
25953;DHT22;13750;50.804;8.764;2022-07-23T13:30:40;23.40;54.20
25953;DHT22;13750;50.804;8.764;2022-07-23T13:33:06;23.40;54.20
25953;DHT22;13750;50.804;8.764;2022-07-23T13:35:33;23.40;54.30
25953;DHT22;13750;50.804;8.764;2022-07-23T13:37:59;23.40;54.10
25953;DHT22;13750;50.804;8.764;2022-07-23T13:40:24;23.40;54.20
25953;DHT22;13750;50.804;8.764;2022-07-23T13:42:50;23.50;54.20
25953;DHT22;13750;50.804;8.764;2022-07-23T13:45:16;23.50;53.70
25953;DHT22;13750;50.804;8.764;2022-07-23T13:47:41;23.60;53.60
25953;DHT22;13750;50.804;8.764;2022-07-23T13:50:07;23.60;53.50
25953;DHT22;13750;50.804;8.764;2022-07-23T13:52:35;23.70;51.70
25953;DHT22;13750;50.804;8.764;2022-07-23T13:55:03;23.80;51.00
25953;DHT22;13750;50.804;8.764;2022-07-23T13:57:30;23.80;51.40
25953;DHT22;13750;50.804;8.764;2022-07-23T13:59:56;23.90;50.70
25953;DHT22;13750;50.804;8.764;2022-07-23T14:02:21;24.00;50.80
25953;DHT22;13750;50.804;8.764;2022-07-23T14:04:47;24.00;50.40
25953;DHT22;13750;50.804;8.764;2022-07-23T14:07:14;24.00;50.60
25953;DHT22;13750;50.804;8.764;2022-07-23T14:09:40;24.00;50.80
25953;DHT22;13750;50.804;8.764;2022-07-23T14:12:06;24.10;50.80
25953;DHT22;13750;50.804;8.764;2022-07-23T14:14:33;24.00;50.60
25953;DHT22;13750;50.804;8.764;2022-07-23T14:17:02;24.10;50.30
25953;DHT22;13750;50.804;8.764;2022-07-23T14:19:28;24.10;50.50
25953;DHT22;13750;50.804;8.764;2022-07-23T14:21:57;24.10;50.60
25953;DHT22;13750;50.804;8.764;2022-07-23T14:24:22;24.10;50.90
25953;DHT22;13750;50.804;8.764;2022-07-23T14:26:48;24.10;51.30
25953;DHT22;13750;50.804;8.764;2022-07-23T14:29:17;24.10;51.50
25953;DHT22;13750;50.804;8.764;2022-07-23T14:31:42;24.10;51.60
25953;DHT22;13750;50.804;8.764;2022-07-23T14:34:08;24.10;51.80
25953;DHT22;13750;50.804;8.764;2022-07-23T14:36:34;24.10;51.00
25953;DHT22;13750;50.804;8.764;2022-07-23T14:39:00;24.10;50.60
25953;DHT22;13750;50.804;8.764;2022-07-23T14:41:26;24.10;50.10
25953;DHT22;13750;50.804;8.764;2022-07-23T14:43:51;24.20;49.90
25953;DHT22;13750;50.804;8.764;2022-07-23T14:46:17;24.20;50.00
25953;DHT22;13750;50.804;8.764;2022-07-23T14:48:42;24.30;49.80
25953;DHT22;13750;50.804;8.764;2022-07-23T14:51:08;24.30;49.60
25953;DHT22;13750;50.804;8.764;2022-07-23T14:53:34;24.40;49.90
25953;DHT22;13750;50.804;8.764;2022-07-23T14:55:59;24.50;49.50
25953;DHT22;13750;50.804;8.764;2022-07-23T14:58:25;24.60;49.10
25953;DHT22;13750;50.804;8.764;2022-07-23T15:00:51;24.60;49.20
25953;DHT22;13750;50.804;8.764;2022-07-23T15:03:17;24.70;48.90
25953;DHT22;13750;50.804;8.764;2022-07-23T15:05:42;24.80;48.40
25953;DHT22;13750;50.804;8.764;2022-07-23T15:08:08;24.90;48.30
25953;DHT22;13750;50.804;8.764;2022-07-23T15:10:34;25.00;48.30
25953;DHT22;13750;50.804;8.764;2022-07-23T15:12:59;25.00;48.70
25953;DHT22;13750;50.804;8.764;2022-07-23T15:15:25;25.10;48.70
25953;DHT22;13750;50.804;8.764;2022-07-23T15:17:52;25.10;48.50
25953;DHT22;13750;50.804;8.764;2022-07-23T15:20:17;25.20;48.40
25953;DHT22;13750;50.804;8.764;2022-07-23T15:22:43;25.10;48.30
25953;DHT22;13750;50.804;8.764;2022-07-23T15:25:11;25.20;48.60
25953;DHT22;13750;50.804;8.764;2022-07-23T15:27:36;25.20;48.70
25953;DHT22;13750;50.804;8.764;2022-07-23T15:30:03;25.30;47.30
25953;DHT22;13750;50.804;8.764;2022-07-23T15:32:31;25.40;46.30
25953;DHT22;13750;50.804;8.764;2022-07-23T15:35:03;25.40;45.40
25953;DHT22;13750;50.804;8.764;2022-07-23T15:37:34;25.50;45.50
25953;DHT22;13750;50.804;8.764;2022-07-23T15:40:02;25.60;45.60
25953;DHT22;13750;50.804;8.764;2022-07-23T15:42:35;25.60;45.30
25953;DHT22;13750;50.804;8.764;2022-07-23T15:45:06;25.70;45.30
25953;DHT22;13750;50.804;8.764;2022-07-23T15:47:31;25.80;45.40
25953;DHT22;13750;50.804;8.764;2022-07-23T15:49:57;25.90;45.20
25953;DHT22;13750;50.804;8.764;2022-07-23T15:52:23;25.80;45.20
25953;DHT22;13750;50.804;8.764;2022-07-23T15:54:49;25.80;44.90
25953;DHT22;13750;50.804;8.764;2022-07-23T15:57:15;25.80;44.00
25953;DHT22;13750;50.804;8.764;2022-07-23T15:59:40;25.80;44.20
25953;DHT22;13750;50.804;8.764;2022-07-23T16:02:07;25.70;44.30
25953;DHT22;13750;50.804;8.764;2022-07-23T16:04:32;25.70;44.50
25953;DHT22;13750;50.804;8.764;2022-07-23T16:06:59;25.70;44.40
25953;DHT22;13750;50.804;8.764;2022-07-23T16:09:25;25.70;44.70
25953;DHT22;13750;50.804;8.764;2022-07-23T16:11:51;25.60;45.00
25953;DHT22;13750;50.804;8.764;2022-07-23T16:14:18;25.60;44.90
25953;DHT22;13750;50.804;8.764;2022-07-23T16:16:44;25.70;44.20
25953;DHT22;13750;50.804;8.764;2022-07-23T16:19:10;25.70;43.50
25953;DHT22;13750;50.804;8.764;2022-07-23T16:21:35;25.70;43.60
25953;DHT22;13750;50.804;8.764;2022-07-23T16:24:04;25.70;43.60